Campo Grande, Argentina
Current Conditions -  °F | °C
As of 2:00 PM on Sunday 21 Dec 2014 (Local Time) from SARC Reporting Station
Broken Clouds Broken Clouds  
Wind Chill: 26°   Ceiling: 10000
Heat Index: 27°   Visibility: 6mi
Dew Point: 18°   Wind: 10mph
Humidity: 61%   Direction: 180°S
Pressure: 29.68"   Gusts: NA
Location:  27.52°S, 58.3°W
Report Text: SARC 211700Z 18009KT 9999 FEW008 SCT018 BKN100 26/18 Q1005
Loading
Personal Weather Stations






























Interactive Weather Map New forecast layout! Learn more

10-Day Weather Forecast

Advertisements
Track Severe Weather on mobile